createdAt,value
2023-03-21T00:00:16.234Z,9.58
2023-03-21T00:01:07.799Z,9.58
2023-03-21T00:01:59.598Z,9.59
2023-03-21T00:02:51.489Z,9.59
2023-03-21T00:03:48.123Z,9.60
2023-03-21T00:04:50.810Z,9.61
2023-03-21T00:05:51.703Z,9.63
2023-03-21T00:06:43.686Z,9.64
2023-03-21T00:07:35.209Z,9.63
2023-03-21T00:08:27.377Z,9.59
2023-03-21T00:09:20.441Z,9.61
2023-03-21T00:10:18.024Z,9.62
2023-03-21T00:11:13.203Z,9.61
2023-03-21T00:12:08.683Z,9.61
2023-03-21T00:13:00.231Z,9.63
2023-03-21T00:13:53.621Z,9.61
2023-03-21T00:14:45.939Z,9.60
2023-03-21T00:15:58.018Z,9.58
2023-03-21T00:16:55.184Z,9.55
2023-03-21T00:17:50.894Z,9.58
2023-03-21T00:18:48.629Z,9.59
2023-03-21T00:19:41.223Z,9.59
2023-03-21T00:20:37.750Z,9.59
2023-03-21T00:22:03.576Z,9.58
2023-03-21T00:22:43.674Z,9.54
2023-03-21T00:23:36.349Z,9.53
2023-03-21T00:24:27.947Z,9.55
2023-03-21T00:25:19.995Z,9.53
2023-03-21T00:26:11.948Z,9.53
2023-03-21T00:28:20.991Z,9.51
2023-03-21T00:29:13.396Z,9.52
2023-03-21T00:30:06.139Z,9.52
2023-03-21T00:31:01.082Z,9.51
2023-03-21T00:31:52.863Z,9.52
2023-03-21T00:32:55.473Z,9.51
2023-03-21T00:33:47.749Z,9.51
2023-03-21T00:34:43.301Z,9.51
2023-03-21T00:36:05.692Z,9.53
2023-03-21T00:36:58.375Z,9.52
2023-03-21T00:37:49.879Z,9.52
2023-03-21T00:38:41.933Z,9.51
2023-03-21T00:39:33.409Z,9.50
2023-03-21T00:40:29.618Z,9.50
2023-03-21T00:41:41.155Z,9.54
2023-03-21T00:42:33.470Z,9.54
2023-03-21T00:43:30.143Z,9.51
2023-03-21T00:44:23.348Z,9.51
2023-03-21T00:45:16.573Z,9.50
2023-03-21T00:46:08.588Z,9.47
2023-03-21T00:47:07.581Z,9.48
2023-03-21T00:47:59.752Z,9.48
2023-03-21T00:48:53.230Z,9.47
2023-03-21T00:49:45.839Z,9.47
2023-03-21T00:50:38.781Z,9.46
2023-03-21T00:51:30.475Z,9.47
2023-03-21T00:52:38.004Z,9.46
2023-03-21T00:53:31.692Z,9.44
2023-03-21T00:54:23.975Z,9.46
2023-03-21T00:55:17.580Z,9.46
2023-03-21T00:56:09.529Z,9.46
2023-03-21T00:57:02.846Z,9.48
2023-03-21T00:58:01.468Z,9.48
2023-03-21T00:58:53.673Z,9.49
2023-03-21T00:59:45.718Z,9.50
2023-03-21T01:00:37.780Z,9.52
2023-03-21T01:01:32.206Z,9.50
2023-03-21T01:02:26.543Z,9.49
2023-03-21T01:03:24.965Z,9.49
2023-03-21T01:04:17.127Z,9.51
2023-03-21T01:05:11.521Z,9.51
2023-03-21T01:06:07.639Z,9.51
2023-03-21T01:06:59.291Z,9.52
2023-03-21T01:07:53.063Z,9.52
2023-03-21T01:08:54.234Z,9.52
2023-03-21T01:09:45.906Z,9.51
2023-03-21T01:10:42.685Z,9.51
2023-03-21T01:11:35.050Z,9.52
2023-03-21T01:12:28.589Z,9.51
2023-03-21T01:13:23.362Z,9.52
2023-03-21T01:14:23.094Z,9.52
2023-03-21T01:15:15.537Z,9.52
2023-03-21T01:16:09.092Z,9.51
2023-03-21T01:17:00.845Z,9.51
2023-03-21T01:17:52.327Z,9.51
2023-03-21T01:18:43.951Z,9.53
2023-03-21T01:19:50.620Z,9.54
2023-03-21T01:20:45.179Z,9.53
2023-03-21T01:21:37.337Z,9.54
2023-03-21T01:22:28.824Z,9.53
2023-03-21T01:23:20.460Z,9.53
2023-03-21T01:24:11.981Z,9.50
2023-03-21T01:25:21.204Z,9.48
2023-03-21T01:26:15.013Z,9.45
2023-03-21T01:27:08.529Z,9.43
2023-03-21T01:28:00.298Z,9.45
2023-03-21T01:28:52.480Z,9.46
2023-03-21T01:29:44.089Z,9.44
2023-03-21T01:30:41.704Z,9.42
2023-03-21T01:31:33.838Z,9.42
2023-03-21T01:32:26.029Z,9.42
2023-03-21T01:33:19.862Z,9.42
2023-03-21T01:34:11.483Z,9.45
2023-03-21T01:35:03.983Z,9.43
2023-03-21T01:36:06.515Z,9.43
2023-03-21T01:37:03.737Z,9.42
2023-03-21T01:37:59.860Z,9.45
2023-03-21T01:38:53.264Z,9.49
2023-03-21T01:39:46.037Z,9.49
2023-03-21T01:40:38.874Z,9.48
2023-03-21T01:41:44.547Z,9.46
2023-03-21T01:42:45.964Z,9.45
2023-03-21T01:43:40.170Z,9.44
2023-03-21T01:44:33.608Z,9.41
2023-03-21T01:46:02.451Z,9.42
2023-03-21T01:47:13.841Z,9.40
2023-03-21T01:48:11.716Z,9.41
2023-03-21T01:49:25.959Z,9.43
2023-03-21T01:50:26.955Z,9.42
2023-03-21T01:51:27.504Z,9.40
2023-03-21T01:52:37.902Z,9.39
2023-03-21T01:53:40.609Z,9.39
2023-03-21T01:54:38.497Z,9.40
2023-03-21T01:55:31.338Z,9.41
2023-03-21T01:56:36.409Z,9.40
2023-03-21T01:57:51.917Z,9.38
2023-03-21T01:58:55.482Z,9.38
2023-03-21T02:00:12.397Z,9.40
2023-03-21T02:01:23.023Z,9.39
2023-03-21T02:02:29.456Z,9.40
2023-03-21T02:03:38.349Z,9.38
2023-03-21T02:04:41.226Z,9.39
2023-03-21T02:05:50.143Z,9.38
2023-03-21T02:06:54.616Z,9.40
2023-03-21T02:07:56.748Z,9.41
2023-03-21T02:08:48.989Z,9.40
2023-03-21T02:09:46.590Z,9.41
2023-03-21T02:10:50.132Z,9.40
2023-03-21T02:11:55.150Z,9.37
2023-03-21T02:12:48.488Z,9.38
2023-03-21T02:13:40.712Z,9.37
2023-03-21T02:14:38.313Z,9.34
2023-03-21T02:16:06.422Z,9.34
2023-03-21T02:17:20.467Z,9.32
2023-03-21T02:18:30.882Z,9.33
2023-03-21T02:19:35.653Z,9.32
2023-03-21T02:21:06.058Z,9.32
2023-03-21T02:22:43.421Z,9.34
2023-03-21T02:23:37.831Z,9.36
2023-03-21T02:24:42.730Z,9.34
2023-03-21T02:26:01.699Z,9.33
2023-03-21T02:27:15.888Z,9.34
2023-03-21T02:28:29.648Z,9.34
2023-03-21T02:29:48.712Z,9.34
2023-03-21T02:31:06.882Z,9.32
2023-03-21T02:32:37.361Z,9.34
2023-03-21T02:33:48.836Z,9.33
2023-03-21T02:35:00.933Z,9.32
2023-03-21T02:36:14.229Z,9.34
2023-03-21T02:37:36.679Z,9.34
2023-03-21T02:38:47.377Z,9.37
2023-03-21T02:39:50.928Z,9.37
2023-03-21T02:41:05.351Z,9.38
2023-03-21T02:42:34.408Z,9.37
2023-03-21T02:44:06.200Z,9.35
2023-03-21T02:44:59.785Z,9.35
2023-03-21T02:46:01.508Z,9.37
2023-03-21T02:47:06.388Z,9.33
2023-03-21T02:48:26.833Z,9.31
2023-03-21T02:49:31.785Z,9.27
2023-03-21T02:50:33.185Z,9.25
2023-03-21T02:51:30.727Z,9.24
2023-03-21T02:52:39.278Z,9.22
2023-03-21T02:53:40.248Z,9.29
2023-03-21T02:54:47.593Z,9.30
2023-03-21T02:55:47.337Z,9.28
2023-03-21T02:56:42.965Z,9.28
2023-03-21T02:57:42.479Z,9.28
2023-03-21T02:58:41.207Z,9.30
2023-03-21T02:59:39.433Z,9.29
2023-03-21T03:00:40.125Z,9.30
2023-03-21T03:01:32.202Z,9.30
2023-03-21T03:02:28.333Z,9.28
2023-03-21T03:03:33.058Z,9.25
2023-03-21T03:04:28.334Z,9.25
2023-03-21T03:05:28.537Z,9.25
2023-03-21T03:06:29.231Z,9.24
2023-03-21T03:07:41.444Z,9.26
2023-03-21T03:08:59.740Z,9.24
2023-03-21T03:10:26.979Z,9.24
2023-03-21T03:11:24.303Z,9.25
2023-03-21T03:12:45.744Z,9.23
2023-03-21T03:13:46.441Z,9.21
2023-03-21T03:15:03.377Z,9.23
2023-03-21T03:16:36.891Z,9.24
2023-03-21T03:17:47.609Z,9.23
2023-03-21T03:18:49.599Z,9.22
2023-03-21T03:20:15.124Z,9.23
2023-03-21T03:21:20.193Z,9.22
2023-03-21T03:22:23.809Z,9.22
2023-03-21T03:23:55.622Z,9.22
2023-03-21T03:25:19.828Z,9.23
2023-03-21T03:26:30.177Z,9.25
2023-03-21T03:27:32.414Z,9.25
2023-03-21T03:28:36.484Z,9.22
2023-03-21T03:29:38.866Z,9.23
2023-03-21T03:30:41.143Z,9.22
2023-03-21T03:31:44.489Z,9.20
2023-03-21T03:32:50.281Z,9.19
2023-03-21T03:33:52.144Z,9.15
2023-03-21T03:34:50.998Z,9.13
2023-03-21T03:35:53.055Z,9.09
2023-03-21T03:36:59.683Z,9.04
2023-03-21T03:37:59.440Z,9.02
2023-03-21T03:38:51.722Z,8.98
2023-03-21T03:39:56.976Z,8.93
2023-03-21T03:40:58.381Z,8.89
2023-03-21T03:42:21.871Z,8.83
2023-03-21T03:43:36.020Z,8.75
2023-03-21T03:44:28.514Z,8.73
2023-03-21T03:45:35.603Z,8.68
2023-03-21T03:46:33.328Z,8.63
2023-03-21T03:47:57.796Z,8.56
2023-03-21T03:49:04.583Z,8.54
2023-03-21T03:50:06.263Z,8.50
2023-03-21T03:51:16.307Z,8.47
2023-03-21T03:52:40.050Z,8.43
2023-03-21T03:53:43.168Z,8.41
2023-03-21T03:54:41.610Z,8.37
2023-03-21T03:55:34.868Z,8.37
2023-03-21T03:56:38.896Z,8.36
2023-03-21T03:57:30.868Z,8.35
2023-03-21T03:58:33.461Z,8.33
2023-03-21T03:59:35.702Z,8.33
2023-03-21T04:00:50.885Z,8.34
2023-03-21T04:01:42.455Z,8.38
2023-03-21T04:02:34.156Z,8.38
2023-03-21T04:03:29.353Z,8.40
2023-03-21T04:04:28.569Z,8.43
2023-03-21T04:05:21.270Z,8.45
2023-03-21T04:06:13.796Z,8.47
2023-03-21T04:07:06.564Z,8.50
2023-03-21T04:07:58.512Z,8.53
2023-03-21T04:09:03.490Z,8.56
2023-03-21T04:09:57.985Z,8.59
2023-03-21T04:10:49.449Z,8.64
2023-03-21T04:11:41.019Z,8.66
2023-03-21T04:12:32.513Z,8.68
2023-03-21T04:13:44.275Z,8.74
2023-03-21T04:14:45.673Z,8.73
2023-03-21T04:15:38.904Z,8.74
2023-03-21T04:16:38.149Z,8.77
2023-03-21T04:17:29.947Z,8.76
2023-03-21T04:18:23.016Z,8.76
2023-03-21T04:19:15.981Z,8.76
2023-03-21T04:20:15.061Z,8.75
2023-03-21T04:21:13.048Z,8.75
2023-03-21T04:22:05.095Z,8.75
2023-03-21T04:23:01.177Z,8.75
2023-03-21T04:23:55.009Z,8.74
2023-03-21T04:24:47.022Z,8.76
2023-03-21T04:25:47.676Z,8.75
2023-03-21T04:26:45.807Z,8.77
2023-03-21T04:28:03.892Z,8.80
2023-03-21T04:29:14.513Z,8.80
2023-03-21T04:30:34.039Z,8.83
2023-03-21T04:31:35.910Z,8.85
2023-03-21T04:32:39.409Z,8.85
2023-03-21T04:33:38.330Z,8.84
2023-03-21T04:34:30.186Z,8.84
2023-03-21T04:35:25.065Z,8.84
2023-03-21T04:36:25.172Z,8.86
2023-03-21T04:37:19.299Z,8.85
2023-03-21T04:38:12.255Z,8.88
2023-03-21T04:39:11.865Z,8.89
2023-03-21T04:40:07.708Z,8.88
2023-03-21T04:41:00.675Z,8.90
2023-03-21T04:41:54.214Z,8.91
2023-03-21T04:42:47.877Z,8.90
2023-03-21T04:43:39.484Z,8.91
2023-03-21T04:44:31.079Z,8.90
2023-03-21T04:45:22.817Z,8.89
2023-03-21T04:46:14.393Z,8.89
2023-03-21T04:47:07.009Z,8.86
2023-03-21T04:47:59.037Z,8.88
2023-03-21T04:48:51.301Z,8.90
2023-03-21T04:49:48.197Z,8.90
2023-03-21T04:50:40.980Z,8.91
2023-03-21T04:51:33.292Z,8.90
2023-03-21T04:52:25.498Z,8.90
2023-03-21T04:53:17.615Z,8.91
2023-03-21T04:54:12.215Z,8.89
2023-03-21T04:55:04.083Z,8.89
2023-03-21T04:55:57.581Z,8.87
2023-03-21T04:56:49.598Z,8.89
2023-03-21T04:57:41.497Z,8.89
2023-03-21T04:58:33.137Z,8.87
2023-03-21T04:59:24.771Z,8.88
2023-03-21T05:00:17.393Z,8.87
2023-03-21T05:01:09.576Z,8.88
2023-03-21T05:02:01.271Z,8.88
2023-03-21T05:02:52.738Z,8.89
2023-03-21T05:03:45.789Z,8.87
2023-03-21T05:04:37.550Z,8.87
2023-03-21T05:05:29.110Z,8.87
2023-03-21T05:06:21.073Z,8.88
2023-03-21T05:07:14.669Z,8.89
2023-03-21T05:08:06.751Z,8.91
2023-03-21T05:09:00.655Z,8.92
2023-03-21T05:09:52.573Z,8.88
2023-03-21T05:10:44.107Z,8.91
2023-03-21T05:11:38.653Z,8.93
2023-03-21T05:12:30.679Z,8.97
2023-03-21T05:13:22.336Z,8.98
2023-03-21T05:14:21.807Z,8.99
2023-03-21T05:15:13.406Z,8.98
2023-03-21T05:16:05.525Z,8.98
2023-03-21T05:16:58.000Z,8.98
2023-03-21T05:17:52.849Z,8.97
2023-03-21T05:18:44.912Z,8.97
2023-03-21T05:19:42.728Z,8.95
2023-03-21T05:20:35.709Z,8.97
2023-03-21T05:21:29.638Z,8.97
2023-03-21T05:22:26.659Z,8.96
2023-03-21T05:23:18.472Z,8.97
2023-03-21T05:24:14.965Z,8.98
2023-03-21T05:25:08.875Z,8.99
2023-03-21T05:26:15.046Z,8.99
2023-03-21T05:27:35.027Z,8.99
2023-03-21T05:28:31.682Z,8.99
2023-03-21T05:29:24.712Z,8.97
2023-03-21T05:30:21.949Z,8.98
2023-03-21T05:31:18.457Z,8.97
2023-03-21T05:32:12.258Z,8.98
2023-03-21T05:33:04.368Z,8.98
2023-03-21T05:33:55.983Z,8.97
2023-03-21T05:34:47.786Z,8.99
2023-03-21T05:35:40.282Z,8.99
2023-03-21T05:36:35.991Z,8.99
2023-03-21T05:37:29.881Z,8.98
2023-03-21T05:38:21.855Z,9.00
2023-03-21T05:39:16.715Z,8.99
2023-03-21T05:40:17.226Z,8.98
2023-03-21T05:41:11.941Z,9.01
2023-03-21T05:42:03.854Z,9.03
2023-03-21T05:42:56.383Z,9.06
2023-03-21T05:43:49.320Z,9.07
2023-03-21T05:44:40.877Z,9.09
2023-03-21T05:45:34.167Z,9.05
2023-03-21T05:46:25.922Z,9.04
2023-03-21T05:47:18.688Z,9.05
2023-03-21T05:48:12.431Z,9.04
2023-03-21T05:49:22.678Z,9.06
2023-03-21T05:50:19.015Z,9.09
2023-03-21T05:51:19.866Z,9.09
2023-03-21T05:52:11.817Z,9.08
2023-03-21T05:53:03.509Z,9.07
2023-03-21T05:53:55.593Z,9.12
2023-03-21T05:54:47.048Z,9.08
2023-03-21T05:55:39.769Z,9.08
2023-03-21T05:56:36.335Z,9.06
2023-03-21T05:57:30.570Z,9.05
2023-03-21T05:58:29.724Z,9.08
2023-03-21T05:59:21.266Z,9.07
2023-03-21T06:00:17.042Z,9.08
2023-03-21T06:01:08.541Z,9.11
2023-03-21T06:02:02.741Z,9.14
2023-03-21T06:02:54.790Z,9.14
2023-03-21T06:04:10.315Z,9.13
2023-03-21T06:05:01.887Z,9.15
2023-03-21T06:05:53.407Z,9.10
2023-03-21T06:06:50.421Z,9.08
2023-03-21T06:07:42.436Z,9.09
2023-03-21T06:08:35.024Z,9.11
2023-03-21T06:09:26.639Z,9.05
2023-03-21T09:12:42.783Z,9.96
2023-03-21T09:13:34.728Z,9.97
2023-03-21T09:14:28.928Z,9.91
2023-03-21T09:15:24.325Z,9.92
2023-03-21T09:16:16.093Z,9.98
2023-03-21T09:17:07.631Z,9.98
2023-03-21T09:18:13.264Z,10.03
2023-03-21T09:19:08.460Z,10.08
2023-03-21T09:20:10.794Z,10.12
2023-03-21T09:21:02.257Z,10.24
2023-03-21T09:21:55.671Z,10.24
2023-03-21T09:22:55.293Z,10.25
2023-03-21T09:23:48.518Z,10.25
2023-03-21T09:24:42.097Z,10.20
2023-03-21T09:25:33.924Z,10.13
2023-03-21T09:26:28.009Z,10.11
2023-03-21T09:27:25.398Z,10.12
2023-03-21T09:28:17.056Z,10.06
2023-03-21T09:29:08.927Z,10.13
2023-03-21T09:30:00.752Z,10.10
2023-03-21T09:30:52.342Z,10.08
2023-03-21T09:31:44.111Z,10.07
2023-03-21T09:32:37.331Z,10.16
2023-03-21T09:33:29.622Z,10.26
2023-03-21T09:34:21.262Z,10.36
2023-03-21T09:35:12.990Z,10.45
2023-03-21T09:36:09.905Z,10.53
2023-03-21T09:37:02.172Z,10.60
2023-03-21T09:37:55.196Z,10.70
2023-03-21T09:38:49.158Z,10.75
2023-03-21T09:39:42.756Z,10.81
2023-03-21T09:40:53.027Z,10.92
2023-03-21T09:42:02.355Z,10.84
2023-03-21T09:43:14.760Z,10.90
2023-03-21T09:44:24.842Z,11.05
2023-03-21T09:45:28.092Z,11.15
2023-03-21T09:46:29.262Z,11.14
2023-03-21T09:47:29.432Z,11.21
2023-03-21T09:48:46.967Z,11.25
2023-03-21T09:50:13.072Z,11.16
2023-03-21T09:51:16.049Z,11.10
2023-03-21T09:52:19.791Z,11.07
2023-03-21T09:53:33.331Z,11.15
2023-03-21T09:54:35.952Z,11.18
2023-03-21T09:55:31.725Z,10.96
2023-03-21T09:56:26.263Z,10.86
2023-03-21T09:57:27.373Z,10.87
2023-03-21T09:58:34.631Z,10.86
2023-03-21T09:59:38.370Z,10.65
2023-03-21T10:00:43.441Z,10.60
2023-03-21T10:01:42.123Z,10.68
2023-03-21T10:02:45.497Z,10.59
2023-03-21T10:03:38.213Z,10.70
2023-03-21T10:04:31.854Z,10.61
2023-03-21T10:05:29.238Z,10.54
2023-03-21T10:06:30.551Z,10.60
2023-03-21T10:07:22.595Z,10.57
2023-03-21T10:08:14.744Z,10.63
2023-03-21T10:09:14.217Z,10.51
2023-03-21T10:10:07.363Z,10.56
2023-03-21T10:11:07.573Z,10.65
2023-03-21T10:12:08.413Z,10.68
2023-03-21T10:12:59.816Z,10.72
2023-03-21T10:13:58.377Z,10.71
2023-03-21T10:14:58.685Z,10.70
2023-03-21T10:15:51.757Z,10.70
2023-03-21T10:16:52.016Z,10.57
2023-03-21T10:17:51.837Z,10.52
2023-03-21T10:18:46.906Z,10.48
2023-03-21T10:19:38.412Z,10.53
2023-03-21T10:20:36.448Z,10.56
2023-03-21T10:21:56.904Z,10.56
2023-03-21T10:22:42.495Z,10.62
2023-03-21T10:23:34.181Z,10.65
2023-03-21T10:24:29.031Z,10.71
2023-03-21T10:25:34.382Z,10.68
2023-03-21T10:26:30.557Z,10.75
2023-03-21T10:27:22.218Z,10.71
2023-03-21T10:28:19.357Z,10.58
2023-03-21T10:29:16.624Z,10.60
2023-03-21T10:30:18.385Z,10.64
2023-03-21T10:31:17.911Z,10.66
2023-03-21T10:32:13.998Z,10.56
2023-03-21T10:33:12.873Z,10.58
2023-03-21T10:34:15.692Z,10.60
2023-03-21T10:35:10.740Z,10.66
2023-03-21T10:36:08.323Z,10.73
2023-03-21T10:37:03.728Z,10.73
2023-03-21T10:37:55.627Z,10.75
2023-03-21T10:38:52.898Z,10.64
2023-03-21T10:39:50.396Z,10.71
2023-03-21T10:40:41.961Z,10.83
2023-03-21T10:41:33.984Z,10.92
2023-03-21T10:42:29.908Z,11.00
2023-03-21T10:43:27.321Z,10.99
2023-03-21T10:44:20.720Z,11.07
2023-03-21T10:45:19.383Z,11.21
2023-03-21T10:46:21.260Z,11.31
2023-03-21T10:47:24.453Z,11.40
2023-03-21T10:48:16.285Z,11.37
2023-03-21T10:49:08.402Z,11.40
2023-03-21T10:50:11.920Z,11.23
2023-03-21T10:51:09.440Z,11.30
2023-03-21T10:52:18.205Z,11.34
2023-03-21T10:53:22.682Z,11.42
2023-03-21T10:54:19.888Z,11.37
2023-03-21T10:55:21.649Z,11.43
2023-03-21T10:56:17.260Z,11.43
2023-03-21T10:57:15.625Z,11.45
2023-03-21T10:58:18.648Z,11.53
2023-03-21T10:59:20.727Z,11.62
2023-03-21T11:00:22.680Z,11.72
2023-03-21T11:01:41.860Z,11.89
2023-03-21T11:02:37.642Z,11.83
2023-03-21T11:03:38.400Z,11.96
2023-03-21T11:04:30.822Z,12.05
2023-03-21T11:05:37.223Z,12.10
2023-03-21T11:06:35.143Z,12.24
2023-03-21T11:07:31.576Z,12.23
2023-03-21T11:08:29.807Z,12.19
2023-03-21T11:09:28.064Z,12.10
2023-03-21T11:10:30.170Z,12.09
2023-03-21T11:11:29.706Z,12.10
2023-03-21T11:12:37.219Z,12.11
2023-03-21T11:13:44.176Z,12.10
2023-03-21T11:14:43.458Z,12.04
2023-03-21T11:15:48.830Z,11.93
2023-03-21T11:16:44.394Z,11.85
2023-03-21T11:17:36.097Z,11.91
2023-03-21T11:18:33.035Z,11.85
2023-03-21T11:19:33.462Z,11.89
2023-03-21T11:20:30.747Z,11.86
2023-03-21T11:21:29.747Z,11.86
2023-03-21T11:22:24.846Z,11.80
2023-03-21T11:23:18.696Z,11.75
2023-03-21T11:24:18.398Z,11.66
2023-03-21T11:25:23.136Z,11.75
2023-03-21T11:26:43.465Z,11.80
2023-03-21T11:27:35.894Z,11.88
2023-03-21T11:28:38.297Z,11.84
2023-03-21T11:29:34.688Z,11.78
2023-03-21T11:30:28.075Z,11.77
2023-03-21T11:31:21.349Z,11.78
2023-03-21T11:32:22.119Z,11.82
2023-03-21T11:33:13.824Z,11.86
2023-03-21T11:34:08.632Z,11.88
2023-03-21T11:35:06.408Z,11.96
2023-03-21T11:36:05.351Z,12.00
2023-03-21T11:37:02.540Z,12.05
2023-03-21T11:37:56.300Z,12.05
2023-03-21T11:39:15.750Z,12.08
2023-03-21T11:40:07.288Z,12.12
2023-03-21T11:41:02.333Z,12.14
2023-03-21T11:41:53.846Z,12.05
2023-03-21T11:42:51.635Z,12.05
2023-03-21T11:43:52.607Z,12.06
2023-03-21T11:44:45.262Z,11.98
2023-03-21T11:45:38.611Z,11.94
2023-03-21T11:46:39.723Z,11.91
2023-03-21T11:47:31.601Z,11.98
2023-03-21T11:48:24.033Z,12.03
2023-03-21T11:49:15.506Z,12.01
2023-03-21T11:50:27.506Z,12.00
2023-03-21T11:51:56.211Z,11.85
2023-03-21T11:53:13.191Z,11.62
2023-03-21T11:54:13.972Z,11.57
2023-03-21T11:55:42.816Z,11.43
2023-03-21T11:56:36.440Z,11.44
2023-03-21T11:57:37.137Z,11.36
2023-03-21T11:59:03.679Z,11.46
2023-03-21T12:00:14.342Z,11.50
2023-03-21T12:01:14.098Z,11.31
2023-03-21T12:02:55.244Z,11.44
2023-03-21T12:03:58.655Z,11.50
2023-03-21T12:05:02.363Z,11.52
2023-03-21T12:06:00.186Z,11.51
2023-03-21T12:07:23.139Z,11.55
2023-03-21T12:08:39.294Z,11.63
2023-03-21T12:09:45.098Z,11.65
2023-03-21T12:10:54.516Z,11.60
2023-03-21T12:12:11.767Z,11.51
2023-03-21T12:13:34.316Z,11.53
2023-03-21T12:14:49.184Z,11.50
2023-03-21T12:15:55.721Z,11.44
2023-03-21T12:17:16.186Z,11.35
2023-03-21T12:18:49.258Z,11.35
2023-03-21T12:20:01.884Z,11.43
2023-03-21T12:20:59.581Z,11.36
2023-03-21T12:22:18.766Z,11.32
2023-03-21T12:23:38.037Z,11.38
2023-03-21T12:24:49.463Z,11.39
2023-03-21T12:25:56.412Z,11.37
2023-03-21T12:27:14.572Z,11.40
2023-03-21T12:28:33.276Z,11.26
2023-03-21T12:29:43.386Z,11.25
2023-03-21T12:30:53.485Z,11.23
2023-03-21T12:32:34.488Z,11.23
2023-03-21T12:34:06.717Z,11.36
2023-03-21T12:35:11.635Z,11.43
2023-03-21T12:36:21.875Z,11.32
2023-03-21T12:37:35.888Z,11.24
2023-03-21T12:38:44.067Z,11.20
2023-03-21T12:39:38.876Z,11.21
2023-03-21T12:40:54.541Z,11.18
2023-03-21T12:42:00.716Z,11.27
2023-03-21T12:43:03.843Z,11.31
2023-03-21T12:44:03.048Z,11.35
2023-03-21T12:45:11.615Z,11.37
2023-03-21T12:46:18.710Z,11.40
2023-03-21T12:47:23.959Z,11.46
2023-03-21T12:48:38.948Z,11.55
2023-03-21T12:49:35.882Z,11.62
2023-03-21T12:50:37.362Z,11.63
2023-03-21T12:51:44.472Z,11.65
2023-03-21T12:52:42.131Z,11.66
2023-03-21T12:53:53.052Z,11.66
2023-03-21T12:55:01.748Z,11.72
2023-03-21T12:56:01.841Z,11.73
2023-03-21T12:57:04.495Z,11.79
2023-03-21T12:58:01.930Z,11.69
2023-03-21T12:59:28.971Z,11.76
2023-03-21T13:00:42.728Z,12.05
2023-03-21T13:01:40.116Z,12.16
2023-03-21T13:02:37.839Z,12.21
2023-03-21T13:03:40.559Z,12.31
2023-03-21T13:05:00.053Z,12.39
2023-03-21T13:05:58.200Z,12.40
2023-03-21T13:06:55.773Z,12.42
2023-03-21T13:08:11.256Z,12.38
2023-03-21T13:09:18.044Z,12.26
2023-03-21T13:10:21.000Z,12.21
2023-03-21T13:11:20.149Z,12.22
2023-03-21T13:12:26.132Z,12.23
2023-03-21T13:13:43.017Z,12.31
2023-03-21T13:14:48.652Z,12.35
2023-03-21T13:16:17.538Z,12.31
2023-03-21T13:17:45.277Z,12.30
2023-03-21T13:18:47.024Z,12.22
2023-03-21T13:19:50.045Z,12.31
2023-03-21T13:20:55.545Z,12.26
2023-03-21T13:22:02.012Z,12.04
2023-03-21T13:22:53.526Z,12.11
2023-03-21T13:24:17.260Z,12.17
2023-03-21T13:25:26.268Z,12.37
2023-03-21T13:26:17.824Z,12.30
2023-03-21T13:27:24.938Z,12.32
2023-03-21T13:28:28.270Z,12.33
2023-03-21T13:29:26.928Z,12.09
2023-03-21T13:30:22.788Z,12.08
2023-03-21T13:31:30.517Z,12.10
2023-03-21T13:32:34.024Z,12.13
2023-03-21T13:33:34.528Z,12.18
2023-03-21T13:34:27.050Z,12.16
2023-03-21T13:35:27.819Z,12.17
2023-03-21T13:36:26.701Z,12.32
2023-03-21T13:37:20.127Z,12.39
2023-03-21T13:38:21.091Z,12.43
2023-03-21T13:39:20.965Z,12.44
2023-03-21T13:40:27.342Z,12.47
2023-03-21T13:41:39.322Z,12.40
2023-03-21T13:42:33.654Z,12.26
2023-03-21T13:44:06.394Z,12.06
2023-03-21T13:45:00.866Z,11.91
2023-03-21T13:45:53.943Z,11.89
2023-03-21T13:46:55.065Z,11.95
2023-03-21T13:48:04.643Z,12.11
2023-03-21T13:49:13.138Z,12.12
2023-03-21T13:50:19.818Z,12.38
2023-03-21T13:51:11.704Z,12.45
2023-03-21T13:52:27.754Z,12.47
2023-03-21T13:53:22.419Z,12.49
2023-03-21T13:54:13.882Z,12.54
2023-03-21T13:55:16.761Z,12.37
2023-03-21T13:56:17.340Z,12.40
2023-03-21T13:57:41.427Z,12.39
2023-03-21T13:58:32.841Z,12.51
2023-03-21T13:59:44.568Z,12.64
2023-03-21T14:00:39.800Z,12.53
2023-03-21T14:01:41.633Z,12.52
2023-03-21T14:02:34.617Z,12.50
2023-03-21T14:03:33.998Z,12.39
2023-03-21T14:04:42.109Z,12.32
2023-03-21T14:05:35.608Z,12.30
2023-03-21T14:06:38.380Z,12.41
2023-03-21T14:07:34.494Z,12.34
2023-03-21T14:08:37.269Z,12.37
2023-03-21T14:09:39.375Z,12.52
2023-03-21T14:10:39.641Z,12.55
2023-03-21T14:11:34.278Z,12.47
2023-03-21T14:12:37.411Z,12.48
2023-03-21T14:13:31.331Z,12.56
2023-03-21T14:14:47.068Z,12.55
2023-03-21T14:15:54.983Z,12.66
2023-03-21T14:16:47.743Z,12.67
2023-03-21T14:17:39.435Z,12.69
2023-03-21T14:18:58.631Z,12.66
2023-03-21T14:19:42.431Z,12.68
2023-03-21T14:20:39.985Z,12.61
2023-03-21T14:21:34.467Z,12.64
2023-03-21T14:22:26.045Z,12.60
2023-03-21T14:23:17.587Z,12.59
2023-03-21T14:24:14.088Z,12.65
2023-03-21T14:25:12.674Z,12.62
2023-03-21T14:26:04.548Z,12.66
2023-03-21T14:26:56.113Z,12.68
2023-03-21T14:27:55.471Z,12.68
2023-03-21T14:28:51.888Z,12.70
2023-03-21T14:29:46.085Z,12.75
2023-03-21T14:30:40.586Z,12.73
2023-03-21T14:31:34.079Z,12.79
2023-03-21T14:32:29.294Z,12.76
2023-03-21T14:33:56.261Z,12.84
2023-03-21T14:34:49.311Z,12.72
2023-03-21T14:35:42.609Z,12.72
2023-03-21T14:36:43.159Z,12.72
2023-03-21T14:37:41.109Z,12.69
2023-03-21T14:38:35.855Z,12.74
2023-03-21T14:39:32.001Z,12.84
2023-03-21T14:40:27.433Z,12.85
2023-03-21T14:41:24.660Z,12.87
2023-03-21T14:42:16.666Z,12.88
2023-03-21T14:43:12.064Z,12.95
2023-03-21T14:44:26.108Z,12.94
2023-03-21T14:45:24.596Z,12.92
2023-03-21T14:46:16.131Z,12.92
2023-03-21T14:47:18.771Z,13.02
2023-03-21T14:48:16.249Z,13.03
2023-03-21T14:49:25.737Z,13.00
2023-03-21T14:50:19.083Z,13.01
2023-03-21T14:51:12.243Z,13.04
2023-03-21T14:52:10.194Z,13.10
2023-03-21T14:53:03.815Z,13.06
2023-03-21T14:53:57.623Z,13.03
2023-03-21T14:54:50.345Z,13.05
2023-03-21T14:55:46.237Z,12.97
2023-03-21T14:56:39.274Z,12.96
2023-03-21T14:57:33.263Z,12.99
2023-03-21T14:58:26.093Z,13.01
2023-03-21T14:59:23.709Z,12.99
2023-03-21T15:00:24.414Z,13.03
2023-03-21T15:01:27.003Z,13.02
2023-03-21T15:02:31.542Z,13.11
2023-03-21T15:03:27.374Z,13.26
2023-03-21T15:04:21.865Z,13.32
2023-03-21T15:05:33.641Z,13.33
2023-03-21T15:06:25.444Z,13.31
2023-03-21T15:07:54.021Z,13.25
2023-03-21T15:09:04.703Z,13.45
2023-03-21T15:10:04.811Z,13.31
2023-03-21T15:11:09.669Z,13.24
2023-03-21T15:12:07.422Z,13.26
2023-03-21T15:13:03.076Z,13.24
2023-03-21T15:13:56.004Z,13.28
2023-03-21T15:14:49.588Z,13.34
2023-03-21T15:15:42.154Z,13.30
2023-03-21T15:16:35.616Z,13.23
2023-03-21T15:17:28.951Z,13.27
2023-03-21T15:18:27.910Z,13.30
2023-03-21T15:19:28.875Z,13.39
2023-03-21T15:20:27.159Z,13.42
2023-03-21T15:21:30.302Z,13.36
2023-03-21T15:22:24.666Z,13.23
2023-03-21T15:23:28.612Z,13.27
2023-03-21T15:24:31.474Z,13.21
2023-03-21T15:25:30.953Z,13.20
2023-03-21T15:26:25.944Z,13.15
2023-03-21T15:27:20.713Z,13.21
2023-03-21T15:28:15.501Z,13.23
2023-03-21T15:29:07.956Z,13.29
2023-03-21T15:29:59.479Z,13.30
2023-03-21T15:30:53.693Z,13.33
2023-03-21T15:31:48.745Z,13.38
2023-03-21T15:32:40.442Z,13.42
2023-03-21T15:33:33.058Z,13.40
2023-03-21T15:34:29.288Z,13.47
2023-03-21T15:35:29.656Z,13.34
2023-03-21T15:36:25.037Z,13.38
2023-03-21T15:37:22.260Z,13.35
2023-03-21T15:38:36.545Z,13.28
2023-03-21T15:39:29.686Z,13.28
2023-03-21T15:40:34.463Z,13.24
2023-03-21T15:41:29.909Z,13.14
2023-03-21T15:42:32.231Z,13.14
2023-03-21T15:43:23.659Z,12.99
2023-03-21T15:44:15.809Z,12.99
2023-03-21T15:45:33.783Z,13.02
2023-03-21T15:46:50.770Z,13.09
2023-03-21T15:48:06.758Z,13.21
2023-03-21T15:49:13.839Z,13.35
2023-03-21T15:50:24.838Z,13.49
2023-03-21T15:51:23.919Z,13.58
2023-03-21T15:52:17.399Z,13.63
2023-03-21T15:53:17.187Z,13.67
2023-03-21T15:54:17.596Z,13.54
2023-03-21T15:55:27.846Z,13.56
2023-03-21T15:56:22.508Z,13.69
2023-03-21T15:57:29.778Z,13.75
2023-03-21T15:58:24.686Z,13.76
2023-03-21T15:59:19.562Z,13.80
2023-03-21T16:00:38.600Z,13.78
2023-03-21T16:01:34.706Z,13.74
2023-03-21T16:02:30.962Z,13.71
2023-03-21T16:03:33.245Z,13.62
2023-03-21T16:04:25.815Z,13.61
2023-03-21T16:05:31.443Z,13.62
2023-03-21T16:06:31.015Z,13.57
2023-03-21T16:07:24.467Z,13.47
2023-03-21T16:08:28.208Z,13.40
2023-03-21T16:09:26.458Z,13.41
2023-03-21T16:10:34.055Z,13.42
2023-03-21T16:11:30.724Z,13.44